Eastern Galaxy — DUCH — position and weather

sailwx.info

Track history (hours):
 
Tides and Currents Weather Stations Pressure Air Temp Water Temp Dewpoint Dewpoint Depression Visibility Wind Speed Wind Dir Waves Ship Positions

Eastern Galaxy

Last reported at 2016-Jan-26 15:25 UTC. Time now 2016-Feb-11 08:46 UTC.
Position N 33°53' E 134°56'.
Warning: this ship's position is 15 days out of date.

Length 100 m; draft 6.6 m.

Type: Cargo ship. MMSI: 548829000.

Date/timePositionNaut miles runAvg speedWind from/ knotsBaromVisibWave heightAir tempDewpointWater temp
2016-Jan-26 15:25N 33°53' E 134°56'1011.9
2016-Jan-26 14:33N 34°03' E 134°57'1111.3
2016-Jan-26 13:33N 34°15' E 134°58'1010.1
2016-Jan-26 12:34N 34°24' E 135°03'1111.2
2016-Jan-26 11:33N 34°31' E 135°13'1110.6
2016-Jan-26 10:33N 34°38' E 135°23'2 2.2
2016-Jan-26 09:27N 34°39' E 135°26'0 0.0
2016-Jan-26 08:27N 34°39' E 135°26'0 0.1
2016-Jan-26 07:33N 34°39' E 135°26'0 0.0
2016-Jan-26 06:15N 34°39' E 135°26'0 0.0
2016-Jan-26 05:33N 34°39' E 135°26'0 0.0
2016-Jan-26 04:33N 34°39' E 135°26'0 0.0
2016-Jan-26 03:27N 34°39' E 135°26'0 0.1
2016-Jan-26 02:33N 34°39' E 135°26'0 0.0
2016-Jan-26 01:33N 34°39' E 135°26'0 0.0
2016-Jan-26 00:33N 34°39' E 135°26'0 0.0
2016-Jan-25 23:33N 34°39' E 135°26'0 0.0
2016-Jan-25 22:33N 34°39' E 135°26'0 0.0
2016-Jan-25 21:33N 34°39' E 135°26'0 0.0
2016-Jan-25 20:33N 34°39' E 135°26'0 0.0
2016-Jan-25 19:27N 34°39' E 135°26'0 0.0
2016-Jan-25 18:27N 34°39' E 135°26'0 0.1
2016-Jan-25 17:33N 34°39' E 135°26'0 0.0
2016-Jan-25 16:33N 34°39' E 135°26'0 0.0
2016-Jan-25 15:27N 34°39' E 135°26'0 0.0
2016-Jan-25 14:33N 34°39' E 135°26'0 0.0
2016-Jan-25 13:27N 34°39' E 135°26'0 0.0
2016-Jan-25 12:27N 34°39' E 135°26'0 0.0
2016-Jan-25 11:27N 34°39' E 135°26'0 0.1
2016-Jan-25 10:33N 34°39' E 135°26'2 1.7
2016-Jan-25 09:33N 34°38' E 135°24'8 8.2
2016-Jan-25 08:33N 34°33' E 135°17'1111.5
2016-Jan-25 07:33N 34°25' E 135°07'1110.5
2016-Jan-25 06:33N 34°16' E 134°59'1110.8
2016-Jan-25 05:33N 34°06' E 135°01'222 6.3
2016-Jan-23 18:08N 34°55' E 139°24'1211.7
2016-Jan-23 17:04N 35°02' E 139°37'611.8
2016-Jan-23 16:33N 35°05' E 139°43'1111.3
2016-Jan-23 15:33N 35°17' E 139°45'1010.3
2016-Jan-23 14:33N 35°26' E 139°42'2 1.6
2016-Jan-23 13:33N 35°28' E 139°41'0 0.0
2016-Jan-23 12:33N 35°28' E 139°41'0 0.0
2016-Jan-23 11:33N 35°28' E 139°41'0 0.0
2016-Jan-23 10:33N 35°28' E 139°41'0 0.0
2016-Jan-23 09:33N 35°28' E 139°41'0 0.0
2016-Jan-23 08:33N 35°28' E 139°41'0 0.0
2016-Jan-23 07:33N 35°28' E 139°41'0 0.0
2016-Jan-23 06:30N 35°28' E 139°41'0 0.0
2016-Jan-23 05:33N 35°28' E 139°41'0 0.0
2016-Jan-23 04:33N 35°28' E 139°41'0 0.0
2016-Jan-23 03:33N 35°28' E 139°41'0 0.0
2016-Jan-23 02:33N 35°28' E 139°41'0 0.0
2016-Jan-23 01:30N 35°28' E 139°41'0 0.0
2016-Jan-23 00:33N 35°28' E 139°41'0 0.0
2016-Jan-22 23:33N 35°28' E 139°41'0 0.0
2016-Jan-22 22:33N 35°28' E 139°41'0 0.1
2016-Jan-22 21:33N 35°28' E 139°41'0 0.1
2016-Jan-22 20:33N 35°28' E 139°41'0 0.0
2016-Jan-22 19:33N 35°28' E 139°41'0 0.0
2016-Jan-22 18:33N 35°28' E 139°41'0 0.0
2016-Jan-22 17:33N 35°28' E 139°41'0 0.0
2016-Jan-22 16:33N 35°28' E 139°41'0 0.0
2016-Jan-22 15:33N 35°28' E 139°41'0 0.0
2016-Jan-22 14:33N 35°28' E 139°41'0 0.0
2016-Jan-22 13:33N 35°28' E 139°41'0 0.0
2016-Jan-22 12:33N 35°28' E 139°41'0 0.0
2016-Jan-22 11:33N 35°28' E 139°41'0 0.2
2016-Jan-22 10:34N 35°27' E 139°40'4 4.1
2016-Jan-22 09:33N 35°24' E 139°43'9 9.0
2016-Jan-22 08:33N 35°16' E 139°47'1211.6
2016-Jan-22 07:33N 35°04' E 139°44'  
Track history (hours):
 
Tides and Currents Weather Stations Pressure Air Temp Water Temp Dewpoint Dewpoint Depression Visibility Wind Speed Wind Dir Waves Ship Positions

Eastern Galaxy

Last reported at 2016-Jan-26 15:25 UTC. Time now 2016-Feb-11 08:46 UTC.
Position N 33°53' E 134°56'.
Warning: this ship's position is 15 days out of date.

Length 100 m; draft 6.6 m.

Type: Cargo ship. MMSI: 548829000.

Date/timePositionNaut miles runAvg speedWind from/ knotsBaromVisibWave heightAir tempDewpointWater temp
2016-Jan-26 15:25N 33°53' E 134°56'1011.9
2016-Jan-26 14:33N 34°03' E 134°57'1111.3
2016-Jan-26 13:33N 34°15' E 134°58'1010.1
2016-Jan-26 12:34N 34°24' E 135°03'1111.2
2016-Jan-26 11:33N 34°31' E 135°13'1110.6
2016-Jan-26 10:33N 34°38' E 135°23'2 2.2
2016-Jan-26 09:27N 34°39' E 135°26'0 0.0
2016-Jan-26 08:27N 34°39' E 135°26'0 0.1
2016-Jan-26 07:33N 34°39' E 135°26'0 0.0
2016-Jan-26 06:15N 34°39' E 135°26'0 0.0
2016-Jan-26 05:33N 34°39' E 135°26'0 0.0
2016-Jan-26 04:33N 34°39' E 135°26'0 0.0
2016-Jan-26 03:27N 34°39' E 135°26'0 0.1
2016-Jan-26 02:33N 34°39' E 135°26'0 0.0
2016-Jan-26 01:33N 34°39' E 135°26'0 0.0
2016-Jan-26 00:33N 34°39' E 135°26'0 0.0
2016-Jan-25 23:33N 34°39' E 135°26'0 0.0
2016-Jan-25 22:33N 34°39' E 135°26'0 0.0
2016-Jan-25 21:33N 34°39' E 135°26'0 0.0
2016-Jan-25 20:33N 34°39' E 135°26'0 0.0
2016-Jan-25 19:27N 34°39' E 135°26'0 0.0
2016-Jan-25 18:27N 34°39' E 135°26'0 0.1
2016-Jan-25 17:33N 34°39' E 135°26'0 0.0
2016-Jan-25 16:33N 34°39' E 135°26'0 0.0
2016-Jan-25 15:27N 34°39' E 135°26'0 0.0
2016-Jan-25 14:33N 34°39' E 135°26'0 0.0
2016-Jan-25 13:27N 34°39' E 135°26'0 0.0
2016-Jan-25 12:27N 34°39' E 135°26'0 0.0
2016-Jan-25 11:27N 34°39' E 135°26'0 0.1
2016-Jan-25 10:33N 34°39' E 135°26'2 1.7
2016-Jan-25 09:33N 34°38' E 135°24'8 8.2
2016-Jan-25 08:33N 34°33' E 135°17'1111.5
2016-Jan-25 07:33N 34°25' E 135°07'1110.5
2016-Jan-25 06:33N 34°16' E 134°59'1110.8
2016-Jan-25 05:33N 34°06' E 135°01'222 6.3
2016-Jan-23 18:08N 34°55' E 139°24'1211.7
2016-Jan-23 17:04N 35°02' E 139°37'611.8
2016-Jan-23 16:33N 35°05' E 139°43'1111.3
2016-Jan-23 15:33N 35°17' E 139°45'1010.3
2016-Jan-23 14:33N 35°26' E 139°42'2 1.6
2016-Jan-23 13:33N 35°28' E 139°41'0 0.0
2016-Jan-23 12:33N 35°28' E 139°41'0 0.0
2016-Jan-23 11:33N 35°28' E 139°41'0 0.0
2016-Jan-23 10:33N 35°28' E 139°41'0 0.0
2016-Jan-23 09:33N 35°28' E 139°41'0 0.0
2016-Jan-23 08:33N 35°28' E 139°41'0 0.0
2016-Jan-23 07:33N 35°28' E 139°41'0 0.0
2016-Jan-23 06:30N 35°28' E 139°41'0 0.0
2016-Jan-23 05:33N 35°28' E 139°41'0 0.0
2016-Jan-23 04:33N 35°28' E 139°41'0 0.0
2016-Jan-23 03:33N 35°28' E 139°41'0 0.0
2016-Jan-23 02:33N 35°28' E 139°41'0 0.0
2016-Jan-23 01:30N 35°28' E 139°41'0 0.0
2016-Jan-23 00:33N 35°28' E 139°41'0 0.0
2016-Jan-22 23:33N 35°28' E 139°41'0 0.0
2016-Jan-22 22:33N 35°28' E 139°41'0 0.1
2016-Jan-22 21:33N 35°28' E 139°41'0 0.1
2016-Jan-22 20:33N 35°28' E 139°41'0 0.0
2016-Jan-22 19:33N 35°28' E 139°41'0 0.0
2016-Jan-22 18:33N 35°28' E 139°41'0 0.0
2016-Jan-22 17:33N 35°28' E 139°41'0 0.0
2016-Jan-22 16:33N 35°28' E 139°41'0 0.0
2016-Jan-22 15:33N 35°28' E 139°41'0 0.0
2016-Jan-22 14:33N 35°28' E 139°41'0 0.0
2016-Jan-22 13:33N 35°28' E 139°41'0 0.0
2016-Jan-22 12:33N 35°28' E 139°41'0 0.0
2016-Jan-22 11:33N 35°28' E 139°41'0 0.2
2016-Jan-22 10:34N 35°27' E 139°40'4 4.1
2016-Jan-22 09:33N 35°24' E 139°43'9 9.0
2016-Jan-22 08:33N 35°16' E 139°47'1211.6
2016-Jan-22 07:33N 35°04' E 139°44'  

Dump ship's entire track history